Time;durP1;ratioP1;P1;durP2;ratioP2;P2;SDS_P1;SDS_P2;PMS_P1;PMS_P2;Temp;Humidity;BMP_temperature;BMP_pressure;BME280_temperature;BME280_humidity;BME280_pressure;Samples;Min_cycle;Max_cycle;Signal;HPM_P1;HPM_P2
2024/03/22 00:02:25;;;;;;;26.98;13.48;;;;;;;;;;4992638;28;20054;-62
2024/03/22 00:04:51;;;;;;;29.33;12.57;;;;;;;;;;4989076;28;20035;-60
2024/03/22 00:07:17;;;;;;;31.08;13.02;;;;;;;;;;4992424;28;20062;-63
2024/03/22 00:09:43;;;;;;;29.95;13.85;;;;;;;;;;4995197;28;20053;-62
2024/03/22 00:12:10;;;;;;;29.15;13.27;;;;;;;;;;4990519;28;20046;-62
2024/03/22 00:14:36;;;;;;;31.10;13.23;;;;;;;;;;4990501;28;20061;-62
2024/03/22 00:17:02;;;;;;;26.10;12.90;;;;;;;;;;4990840;28;20046;-63
2024/03/22 00:19:28;;;;;;;37.00;14.27;;;;;;;;;;4993142;28;20054;-63
2024/03/22 00:21:54;;;;;;;30.65;12.98;;;;;;;;;;4994038;28;20528;-61
2024/03/22 00:24:20;;;;;;;32.08;13.57;;;;;;;;;;4996139;28;20042;-62
2024/03/22 00:26:47;;;;;;;25.48;12.40;;;;;;;;;;4992842;28;20054;-63
2024/03/22 00:29:15;;;;;;;26.35;12.88;;;;;;;;;;4989444;28;20035;-62
2024/03/22 00:31:41;;;;;;;29.20;12.25;;;;;;;;;;4988987;28;20430;-62
2024/03/22 00:34:07;;;;;;;32.92;14.52;;;;;;;;;;4997545;28;20034;-63
2024/03/22 00:36:33;;;;;;;29.63;13.65;;;;;;;;;;4994038;28;20050;-62
2024/03/22 00:38:59;;;;;;;27.67;13.70;;;;;;;;;;4996970;28;20053;-63
2024/03/22 00:41:25;;;;;;;36.03;14.98;;;;;;;;;;4990388;28;20054;-62
2024/03/22 00:43:51;;;;;;;33.58;14.93;;;;;;;;;;4993109;28;20053;-62
2024/03/22 00:46:17;;;;;;;31.77;15.00;;;;;;;;;;4989429;28;20045;-62
2024/03/22 00:48:44;;;;;;;38.17;15.98;;;;;;;;;;4992280;28;20403;-63
2024/03/22 00:51:10;;;;;;;33.03;14.50;;;;;;;;;;4989207;28;20053;-62
2024/03/22 00:53:36;;;;;;;34.95;14.30;;;;;;;;;;4990872;28;20049;-63
2024/03/22 00:56:02;;;;;;;34.13;15.20;;;;;;;;;;4992577;28;20042;-62
2024/03/22 00:58:29;;;;;;;31.70;13.98;;;;;;;;;;4994411;28;20073;-62
2024/03/22 01:00:55;;;;;;;32.50;13.75;;;;;;;;;;4992234;28;20508;-62
2024/03/22 01:03:22;;;;;;;32.83;14.85;;;;;;;;;;4991071;28;20041;-62
2024/03/22 01:05:48;;;;;;;30.30;14.55;;;;;;;;;;4996155;28;20039;-62
2024/03/22 01:08:14;;;;;;;44.50;15.93;;;;;;;;;;4993420;28;20600;-61
2024/03/22 01:10:41;;;;;;;34.88;15.60;;;;;;;;;;4994763;28;20838;-60
2024/03/22 01:13:07;;;;;;;32.85;13.93;;;;;;;;;;4992271;28;20510;-61
2024/03/22 01:15:34;;;;;;;35.58;15.95;;;;;;;;;;4993553;28;20057;-61
2024/03/22 01:18:00;;;;;;;36.90;16.33;;;;;;;;;;4993724;28;20045;-61
2024/03/22 01:20:26;;;;;;;35.30;16.80;;;;;;;;;;4995060;28;20430;-61
2024/03/22 01:22:52;;;;;;;36.53;15.82;;;;;;;;;;4996625;28;20046;-63
2024/03/22 01:25:18;;;;;;;42.00;17.27;;;;;;;;;;4997464;28;20038;-61
2024/03/22 01:27:44;;;;;;;42.47;17.42;;;;;;;;;;4996192;28;20038;-62
2024/03/22 01:30:11;;;;;;;41.80;17.40;;;;;;;;;;4999012;28;20045;-62
2024/03/22 01:32:37;;;;;;;40.38;16.25;;;;;;;;;;4995773;28;20058;-62
2024/03/22 01:35:03;;;;;;;46.50;18.42;;;;;;;;;;4990464;28;20058;-62
2024/03/22 01:37:29;;;;;;;46.38;17.52;;;;;;;;;;4994553;28;20035;-62
2024/03/22 01:39:56;;;;;;;38.75;16.58;;;;;;;;;;4993478;28;20045;-62
2024/03/22 01:42:22;;;;;;;39.30;16.27;;;;;;;;;;4993062;28;20033;-62
2024/03/22 01:44:49;;;;;;;43.60;17.80;;;;;;;;;;4993425;28;20434;-62
2024/03/22 01:47:15;;;;;;;46.13;18.10;;;;;;;;;;4992937;28;20035;-62
2024/03/22 01:49:42;;;;;;;44.00;18.02;;;;;;;;;;4994700;28;20055;-62
2024/03/22 01:52:08;;;;;;;48.40;17.80;;;;;;;;;;4991693;28;20054;-63
2024/03/22 01:54:34;;;;;;;43.78;18.13;;;;;;;;;;4995044;28;20049;-63
2024/03/22 01:57:01;;;;;;;42.33;16.38;;;;;;;;;;4995281;28;20042;-63
2024/03/22 01:59:28;;;;;;;38.88;17.05;;;;;;;;;;4992012;28;20050;-62
2024/03/22 02:01:54;;;;;;;40.85;16.27;;;;;;;;;;4994074;28;20042;-62
2024/03/22 02:04:20;;;;;;;40.80;17.00;;;;;;;;;;4996085;28;20046;-63
2024/03/22 02:06:46;;;;;;;42.00;17.20;;;;;;;;;;4995118;28;20061;-62
2024/03/22 02:09:14;;;;;;;40.42;17.10;;;;;;;;;;4990730;28;20410;-62
2024/03/22 02:11:42;;;;;;;43.22;16.35;;;;;;;;;;4996489;28;20105;-62
2024/03/22 02:14:08;;;;;;;35.88;15.40;;;;;;;;;;4995678;28;20073;-62
2024/03/22 02:16:34;;;;;;;33.88;15.43;;;;;;;;;;4992287;28;20046;-64
2024/03/22 02:19:00;;;;;;;38.92;16.25;;;;;;;;;;4992749;28;20034;-63
2024/03/22 02:21:26;;;;;;;39.97;15.95;;;;;;;;;;4990012;28;20050;-62
2024/03/22 02:23:52;;;;;;;37.63;15.93;;;;;;;;;;4991924;28;20088;-61
2024/03/22 02:26:18;;;;;;;34.58;15.10;;;;;;;;;;4998797;28;20051;-62
2024/03/22 02:28:44;;;;;;;36.58;15.15;;;;;;;;;;4995949;28;20506;-63
2024/03/22 02:31:10;;;;;;;42.17;16.08;;;;;;;;;;4994695;28;20053;-61
2024/03/22 02:33:37;;;;;;;37.45;15.77;;;;;;;;;;4991191;28;20054;-62
2024/03/22 02:36:03;;;;;;;39.05;16.52;;;;;;;;;;5000270;28;20030;-63
2024/03/22 02:38:29;;;;;;;43.15;15.65;;;;;;;;;;5000359;28;20410;-62
2024/03/22 02:40:57;;;;;;;42.97;17.60;;;;;;;;;;4989736;28;20030;-62
2024/03/22 02:43:23;;;;;;;47.40;18.10;;;;;;;;;;4990149;28;20034;-62
2024/03/22 02:45:50;;;;;;;43.55;18.60;;;;;;;;;;4992663;28;20031;-62
2024/03/22 02:48:16;;;;;;;44.35;18.08;;;;;;;;;;4990871;28;20050;-62
2024/03/22 02:50:42;;;;;;;47.85;18.00;;;;;;;;;;4994030;28;20092;-63
2024/03/22 02:53:08;;;;;;;42.58;17.27;;;;;;;;;;4993885;28;20031;-63
2024/03/22 02:55:40;;;;;;;42.65;16.45;;;;;;;;;;4992739;28;20049;-63
2024/03/22 02:58:08;;;;;;;46.60;16.75;;;;;;;;;;4993268;28;20513;-62
2024/03/22 03:00:40;;;;;;;44.97;17.92;;;;;;;;;;4996620;28;20054;-63
2024/03/22 03:03:07;;;;;;;45.55;18.10;;;;;;;;;;4988708;28;20054;-62
2024/03/22 03:05:34;;;;;;;45.75;16.55;;;;;;;;;;4995601;28;20050;-63
2024/03/22 03:08:01;;;;;;;41.80;15.73;;;;;;;;;;4991709;28;20524;-63
2024/03/22 03:10:27;;;;;;;34.50;14.85;;;;;;;;;;4996568;28;20048;-62
2024/03/22 03:12:55;;;;;;;42.50;15.75;;;;;;;;;;4991540;28;20058;-63
2024/03/22 03:15:22;;;;;;;39.70;16.20;;;;;;;;;;4996995;28;20414;-62
2024/03/22 03:17:48;;;;;;;35.95;14.82;;;;;;;;;;4991026;28;20050;-62
2024/03/22 03:20:15;;;;;;;35.40;15.18;;;;;;;;;;4997561;28;20049;-61
2024/03/22 03:22:41;;;;;;;38.42;15.38;;;;;;;;;;4991207;28;20033;-62
2024/03/22 03:25:08;;;;;;;37.53;14.63;;;;;;;;;;4991846;28;20402;-62
2024/03/22 03:27:34;;;;;;;35.55;15.23;;;;;;;;;;4991246;28;20537;-62
2024/03/22 03:30:01;;;;;;;40.10;16.27;;;;;;;;;;4991629;28;20034;-63
2024/03/22 03:32:28;;;;;;;43.05;15.82;;;;;;;;;;4993461;28;20114;-63
2024/03/22 03:34:54;;;;;;;40.40;16.30;;;;;;;;;;4991440;28;20502;-62
2024/03/22 03:37:20;;;;;;;41.15;15.40;;;;;;;;;;4989866;28;20490;-64
2024/03/22 03:39:46;;;;;;;40.22;15.73;;;;;;;;;;4991485;28;20425;-63
2024/03/22 03:42:12;;;;;;;38.65;14.52;;;;;;;;;;4991268;28;20046;-62
2024/03/22 03:44:38;;;;;;;32.10;13.68;;;;;;;;;;4992188;28;20046;-61
2024/03/22 03:47:04;;;;;;;36.90;15.07;;;;;;;;;;4990948;28;20037;-63
2024/03/22 03:49:30;;;;;;;35.95;14.30;;;;;;;;;;4991503;28;20056;-62
2024/03/22 03:51:57;;;;;;;33.90;13.32;;;;;;;;;;4990525;28;20061;-63
2024/03/22 03:54:23;;;;;;;34.50;13.82;;;;;;;;;;4991469;28;20030;-62
2024/03/22 03:56:49;;;;;;;31.95;14.00;;;;;;;;;;4990957;28;20058;-63
2024/03/22 03:59:15;;;;;;;37.33;14.88;;;;;;;;;;4992160;28;20042;-63
2024/03/22 04:01:41;;;;;;;33.92;14.05;;;;;;;;;;4992040;28;20050;-62
2024/03/22 04:04:07;;;;;;;32.95;13.18;;;;;;;;;;4993715;28;20049;-62
2024/03/22 04:06:34;;;;;;;34.40;13.02;;;;;;;;;;4992485;28;20045;-61
2024/03/22 04:09:00;;;;;;;32.78;13.05;;;;;;;;;;4990699;28;20053;-62
2024/03/22 04:11:26;;;;;;;33.60;12.13;;;;;;;;;;4990429;28;20034;-62
2024/03/22 04:13:52;;;;;;;29.77;13.02;;;;;;;;;;4994483;28;20428;-62
2024/03/22 04:16:18;;;;;;;32.17;13.07;;;;;;;;;;4987875;28;20049;-63
2024/03/22 04:18:44;;;;;;;35.88;12.40;;;;;;;;;;4993152;28;20058;-62
2024/03/22 04:21:10;;;;;;;29.17;12.48;;;;;;;;;;4988716;28;20057;-62
2024/03/22 04:23:36;;;;;;;30.40;12.48;;;;;;;;;;4990493;28;20049;-62
2024/03/22 04:26:03;;;;;;;26.23;11.93;;;;;;;;;;4990348;28;20568;-63
2024/03/22 04:28:30;;;;;;;28.35;11.45;;;;;;;;;;4990940;28;20046;-62
2024/03/22 04:31:03;;;;;;;28.45;11.32;;;;;;;;;;4992359;28;20054;-62
2024/03/22 04:33:30;;;;;;;29.88;12.38;;;;;;;;;;4992570;28;20069;-61
2024/03/22 04:35:57;;;;;;;28.42;11.05;;;;;;;;;;4993530;28;20050;-63
2024/03/22 04:38:24;;;;;;;33.28;12.38;;;;;;;;;;4997524;28;20764;-62
2024/03/22 04:40:50;;;;;;;29.27;11.63;;;;;;;;;;4995186;28;20386;-61
2024/03/22 04:43:16;;;;;;;26.40;11.65;;;;;;;;;;4996265;28;20042;-62
2024/03/22 04:45:43;;;;;;;31.33;12.00;;;;;;;;;;4993891;28;20045;-62
2024/03/22 04:48:10;;;;;;;34.47;14.18;;;;;;;;;;4992640;28;20050;-61
2024/03/22 04:50:36;;;;;;;32.83;13.77;;;;;;;;;;4995497;28;20041;-62
2024/03/22 04:53:02;;;;;;;40.13;15.93;;;;;;;;;;4994100;28;20414;-62
2024/03/22 04:55:28;;;;;;;32.42;14.55;;;;;;;;;;4997104;28;20109;-62
2024/03/22 04:57:54;;;;;;;28.55;12.20;;;;;;;;;;4996930;28;20061;-62
2024/03/22 05:00:20;;;;;;;29.88;12.38;;;;;;;;;;4997829;28;20514;-63
2024/03/22 05:02:47;;;;;;;33.30;12.35;;;;;;;;;;4993813;28;20413;-62
2024/03/22 05:05:13;;;;;;;34.08;12.43;;;;;;;;;;4997942;28;20050;-63
2024/03/22 05:07:39;;;;;;;30.52;11.43;;;;;;;;;;4987010;28;20049;-62
2024/03/22 05:10:06;;;;;;;29.55;12.57;;;;;;;;;;4998217;28;20050;-65
2024/03/22 05:12:32;;;;;;;33.45;12.85;;;;;;;;;;4991899;28;20049;-62
2024/03/22 05:14:58;;;;;;;28.85;12.00;;;;;;;;;;4997099;28;20030;-62
2024/03/22 05:17:24;;;;;;;28.52;11.27;;;;;;;;;;4995520;28;20709;-62
2024/03/22 05:19:50;;;;;;;26.90;11.20;;;;;;;;;;4995779;28;20395;-65
2024/03/22 05:22:16;;;;;;;27.05;10.52;;;;;;;;;;4991948;28;20038;-64
2024/03/22 05:24:42;;;;;;;25.08;10.45;;;;;;;;;;5000486;28;20053;-62
2024/03/22 05:27:08;;;;;;;31.02;11.88;;;;;;;;;;4993814;28;20034;-62
2024/03/22 05:29:34;;;;;;;24.05;10.55;;;;;;;;;;4992712;28;20511;-61
2024/03/22 05:32:03;;;;;;;25.15;10.98;;;;;;;;;;4992159;28;20046;-62
2024/03/22 05:34:29;;;;;;;24.77;9.60;;;;;;;;;;4989253;28;20042;-63
2024/03/22 05:36:56;;;;;;;26.77;10.27;;;;;;;;;;4990264;28;20049;-62
2024/03/22 05:39:22;;;;;;;26.15;11.57;;;;;;;;;;4993515;28;20045;-59
2024/03/22 05:41:48;;;;;;;27.30;10.75;;;;;;;;;;4993578;28;20637;-59
2024/03/22 05:44:14;;;;;;;28.40;11.50;;;;;;;;;;4993181;28;20034;-59
2024/03/22 05:46:40;;;;;;;28.10;11.70;;;;;;;;;;4992927;28;20058;-59
2024/03/22 05:49:07;;;;;;;30.27;10.80;;;;;;;;;;4993051;28;20053;-58
2024/03/22 05:51:33;;;;;;;29.98;10.77;;;;;;;;;;4992388;28;20518;-59
2024/03/22 05:53:59;;;;;;;25.55;10.55;;;;;;;;;;5011791;22;20055;-61
2024/03/22 05:56:25;;;;;;;23.95;10.68;;;;;;;;;;4993461;28;20050;-61
2024/03/22 05:58:51;;;;;;;24.08;9.82;;;;;;;;;;4992630;28;20054;-62
2024/03/22 06:01:17;;;;;;;20.52;9.70;;;;;;;;;;4991672;28;20030;-62
2024/03/22 06:03:44;;;;;;;23.92;9.52;;;;;;;;;;4992651;28;20057;-63
2024/03/22 06:06:10;;;;;;;26.20;10.98;;;;;;;;;;4989285;28;20042;-62
2024/03/22 06:08:39;;;;;;;28.48;11.85;;;;;;;;;;4996375;28;20490;-61
2024/03/22 06:11:07;;;;;;;33.55;11.38;;;;;;;;;;4996206;28;20038;-62
2024/03/22 06:13:34;;;;;;;26.83;11.27;;;;;;;;;;4998003;28;20033;-62
2024/03/22 06:16:00;;;;;;;26.23;11.68;;;;;;;;;;4991666;28;20410;-63
2024/03/22 06:18:26;;;;;;;31.83;11.60;;;;;;;;;;4995857;28;20060;-63
2024/03/22 06:20:54;;;;;;;31.23;12.13;;;;;;;;;;4993118;28;20050;-63
2024/03/22 06:23:21;;;;;;;26.48;10.35;;;;;;;;;;4998223;28;20041;-64
2024/03/22 06:25:52;;;;;;;26.50;11.25;;;;;;;;;;4988292;28;20041;-64
2024/03/22 06:28:18;;;;;;;35.08;11.98;;;;;;;;;;4994574;28;20054;-64
2024/03/22 06:30:44;;;;;;;29.88;11.80;;;;;;;;;;4994904;28;20046;-63
2024/03/22 06:33:10;;;;;;;33.50;12.07;;;;;;;;;;4989818;28;20049;-63
2024/03/22 06:35:36;;;;;;;34.20;11.82;;;;;;;;;;4992451;28;20478;-63
2024/03/22 06:38:04;;;;;;;39.00;12.38;;;;;;;;;;4993160;28;20050;-63
2024/03/22 06:40:30;;;;;;;39.85;12.93;;;;;;;;;;4991172;28;20500;-63
2024/03/22 06:42:57;;;;;;;36.05;12.20;;;;;;;;;;4992936;28;20065;-63
2024/03/22 06:45:23;;;;;;;36.63;12.95;;;;;;;;;;4993860;28;20638;-63
2024/03/22 06:47:49;;;;;;;40.58;14.05;;;;;;;;;;4993140;28;20728;-63
2024/03/22 06:50:17;;;;;;;39.50;15.45;;;;;;;;;;4992763;28;20030;-64
2024/03/22 06:52:44;;;;;;;45.10;15.27;;;;;;;;;;4992587;28;20041;-63
2024/03/22 06:55:10;;;;;;;35.08;13.35;;;;;;;;;;4994568;28;20038;-63
2024/03/22 06:57:37;;;;;;;41.30;14.43;;;;;;;;;;4994489;28;20034;-63
2024/03/22 07:00:04;;;;;;;46.35;16.60;;;;;;;;;;4994629;28;20026;-62
2024/03/22 07:02:30;;;;;;;44.05;16.80;;;;;;;;;;4994190;28;20056;-64
2024/03/22 07:04:56;;;;;;;52.80;17.30;;;;;;;;;;4993988;28;20031;-63
2024/03/22 07:07:22;;;;;;;52.17;22.55;;;;;;;;;;4995263;28;20053;-64
2024/03/22 07:09:54;;;;;;;64.32;23.83;;;;;;;;;;4994366;28;20046;-63
2024/03/22 07:12:20;;;;;;;52.65;24.40;;;;;;;;;;4997480;28;20042;-62
2024/03/22 07:14:46;;;;;;;61.85;25.85;;;;;;;;;;4994717;28;20398;-63
2024/03/22 07:17:12;;;;;;;74.05;27.30;;;;;;;;;;4994148;28;20065;-63
2024/03/22 07:19:38;;;;;;;60.42;24.27;;;;;;;;;;4994749;28;20034;-64
2024/03/22 07:22:04;;;;;;;62.58;25.83;;;;;;;;;;4995622;28;20050;-63
2024/03/22 07:24:30;;;;;;;63.30;25.33;;;;;;;;;;4993192;28;20038;-63
2024/03/22 07:26:56;;;;;;;64.15;25.77;;;;;;;;;;4994274;28;20062;-64
2024/03/22 07:29:22;;;;;;;68.60;26.17;;;;;;;;;;4992883;28;20494;-62
2024/03/22 07:31:48;;;;;;;67.07;27.40;;;;;;;;;;4990879;28;20046;-62
2024/03/22 07:34:15;;;;;;;71.78;30.20;;;;;;;;;;4991192;28;20022;-63
2024/03/22 07:36:41;;;;;;;73.60;30.52;;;;;;;;;;4992164;28;20050;-62
2024/03/22 07:39:07;;;;;;;90.53;30.30;;;;;;;;;;4965464;28;20489;-63
2024/03/22 07:41:34;;;;;;;71.63;29.13;;;;;;;;;;4990776;28;20046;-62
2024/03/22 07:44:01;;;;;;;69.35;26.95;;;;;;;;;;4992527;28;20030;-61
2024/03/22 07:46:27;;;;;;;60.92;25.98;;;;;;;;;;4993271;28;20049;-61
2024/03/22 07:48:54;;;;;;;62.28;25.58;;;;;;;;;;4992765;28;20053;-61
2024/03/22 07:51:20;;;;;;;65.65;25.77;;;;;;;;;;4993884;28;20065;-61
2024/03/22 07:53:46;;;;;;;61.30;25.33;;;;;;;;;;4993759;28;20045;-60
2024/03/22 07:56:12;;;;;;;64.32;25.42;;;;;;;;;;4994314;28;20050;-61
2024/03/22 07:58:39;;;;;;;59.45;22.88;;;;;;;;;;4993824;28;20050;-62
2024/03/22 08:01:05;;;;;;;59.95;23.52;;;;;;;;;;4988571;28;20046;-61
2024/03/22 08:03:31;;;;;;;54.75;21.67;;;;;;;;;;4996734;28;20030;-61
2024/03/22 08:05:57;;;;;;;41.08;15.98;;;;;;;;;;4993652;28;20054;-61
2024/03/22 08:08:23;;;;;;;44.78;16.05;;;;;;;;;;4973246;28;20073;-61
2024/03/22 08:10:49;;;;;;;41.35;15.07;;;;;;;;;;4990444;28;20042;-61
2024/03/22 08:13:15;;;;;;;47.22;15.05;;;;;;;;;;4997380;28;20048;-61
2024/03/22 08:15:45;;;;;;;46.15;16.00;;;;;;;;;;4993546;28;20053;-61
2024/03/22 08:18:11;;;;;;;36.45;14.73;;;;;;;;;;4993712;28;20604;-61
2024/03/22 08:20:38;;;;;;;42.22;15.50;;;;;;;;;;4991998;28;20069;-60
2024/03/22 08:23:05;;;;;;;39.80;14.63;;;;;;;;;;4995347;28;20034;-61
2024/03/22 08:25:31;;;;;;;39.88;16.33;;;;;;;;;;4992804;28;20042;-61
2024/03/22 08:27:58;;;;;;;46.63;15.32;;;;;;;;;;4993324;28;20046;-61
2024/03/22 08:30:25;;;;;;;42.13;15.40;;;;;;;;;;4972659;28;20405;-62
2024/03/22 08:32:52;;;;;;;39.03;14.80;;;;;;;;;;4990585;28;20050;-61
2024/03/22 08:35:18;;;;;;;38.85;14.52;;;;;;;;;;4989485;28;20043;-62
2024/03/22 08:37:44;;;;;;;36.88;14.63;;;;;;;;;;4987834;28;20050;-62
2024/03/22 08:40:11;;;;;;;37.40;15.38;;;;;;;;;;4990640;28;20486;-61
2024/03/22 08:42:37;;;;;;;40.53;14.88;;;;;;;;;;4992979;28;20050;-62
2024/03/22 08:45:04;;;;;;;36.92;15.48;;;;;;;;;;4986512;28;20405;-61
2024/03/22 08:47:31;;;;;;;42.95;15.73;;;;;;;;;;4991972;28;20046;-62
2024/03/22 08:49:57;;;;;;;34.92;15.07;;;;;;;;;;4988511;28;20050;-61
2024/03/22 08:52:24;;;;;;;33.03;14.48;;;;;;;;;;4993682;28;20528;-62
2024/03/22 08:54:51;;;;;;;34.47;13.25;;;;;;;;;;4992662;28;20494;-61
2024/03/22 08:57:18;;;;;;;33.60;13.75;;;;;;;;;;4993678;28;20050;-62
2024/03/22 08:59:44;;;;;;;35.13;13.73;;;;;;;;;;4992391;28;20042;-62
2024/03/22 09:02:11;;;;;;;28.95;12.98;;;;;;;;;;4993232;28;20046;-62
2024/03/22 09:04:38;;;;;;;30.73;13.30;;;;;;;;;;4995133;28;20414;-62
2024/03/22 09:07:04;;;;;;;34.40;13.30;;;;;;;;;;4993605;28;20042;-62
2024/03/22 09:09:30;;;;;;;30.40;14.63;;;;;;;;;;4991982;28;20046;-62
2024/03/22 09:11:56;;;;;;;32.85;13.05;;;;;;;;;;4993437;28;20046;-62
2024/03/22 09:14:22;;;;;;;32.28;13.38;;;;;;;;;;4994434;28;20038;-62
2024/03/22 09:16:48;;;;;;;26.10;11.75;;;;;;;;;;4993031;28;20046;-62
2024/03/22 09:19:14;;;;;;;30.42;14.38;;;;;;;;;;4994923;28;20118;-61
2024/03/22 09:21:40;;;;;;;33.03;13.40;;;;;;;;;;4996230;28;20414;-62
2024/03/22 09:24:06;;;;;;;30.88;13.65;;;;;;;;;;4999766;28;20052;-61
2024/03/22 09:26:32;;;;;;;40.55;14.00;;;;;;;;;;4997583;28;20046;-61
2024/03/22 09:28:59;;;;;;;29.80;13.43;;;;;;;;;;4990814;28;20034;-61
2024/03/22 09:31:25;;;;;;;31.40;13.73;;;;;;;;;;4993015;28;20069;-61
2024/03/22 09:33:51;;;;;;;26.88;12.13;;;;;;;;;;4993889;28;20042;-61
2024/03/22 09:36:17;;;;;;;26.63;11.82;;;;;;;;;;4994019;28;20062;-62
2024/03/22 09:38:43;;;;;;;27.42;11.82;;;;;;;;;;4994248;28;20053;-61
2024/03/22 09:41:10;;;;;;;36.50;13.73;;;;;;;;;;4992756;28;20038;-62
2024/03/22 09:43:38;;;;;;;33.63;12.95;;;;;;;;;;4996514;28;20046;-61
2024/03/22 09:46:05;;;;;;;31.77;12.88;;;;;;;;;;4993324;28;20050;-62
2024/03/22 09:48:33;;;;;;;28.17;11.43;;;;;;;;;;4994184;28;20046;-61
2024/03/22 09:51:01;;;;;;;27.92;11.40;;;;;;;;;;4995303;28;20050;-62
2024/03/22 09:53:30;;;;;;;27.48;12.20;;;;;;;;;;4994352;28;20049;-62
2024/03/22 09:55:59;;;;;;;23.97;10.63;;;;;;;;;;4996467;28;20069;-64
2024/03/22 09:58:25;;;;;;;23.10;10.82;;;;;;;;;;4996211;28;20302;-62
2024/03/22 10:00:51;;;;;;;25.67;11.23;;;;;;;;;;4995119;28;20038;-62
2024/03/22 10:03:18;;;;;;;28.38;11.10;;;;;;;;;;4997132;28;20046;-61
2024/03/22 10:05:44;;;;;;;23.13;11.13;;;;;;;;;;4995152;28;20049;-62
2024/03/22 10:08:11;;;;;;;25.67;10.80;;;;;;;;;;4998521;28;20482;-62
2024/03/22 10:10:37;;;;;;;25.67;11.00;;;;;;;;;;4988400;28;20038;-62
2024/03/22 10:13:04;;;;;;;19.75;9.20;;;;;;;;;;4996829;28;20042;-62
2024/03/22 10:15:30;;;;;;;17.80;9.43;;;;;;;;;;4998266;28;20034;-62
2024/03/22 10:17:57;;;;;;;20.80;9.27;;;;;;;;;;4995094;28;20695;-62
2024/03/22 10:20:23;;;;;;;23.67;8.95;;;;;;;;;;4993723;28;20491;-62
2024/03/22 10:22:58;;;;;;;19.08;9.73;;;;;;;;;;4995989;28;20054;-62
2024/03/22 10:25:25;;;;;;;20.98;9.00;;;;;;;;;;4995082;28;20042;-62
2024/03/22 10:27:54;;;;;;;20.00;10.10;;;;;;;;;;4992733;28;20523;-62
2024/03/22 10:30:22;;;;;;;14.65;8.32;;;;;;;;;;4992183;28;20410;-63
2024/03/22 10:32:51;;;;;;;14.07;7.05;;;;;;;;;;4992593;28;20049;-63
2024/03/22 10:35:18;;;;;;;15.02;7.50;;;;;;;;;;4992336;28;20042;-62
2024/03/22 10:37:44;;;;;;;15.38;7.13;;;;;;;;;;4991268;28;20058;-62
2024/03/22 10:40:11;;;;;;;11.82;7.00;;;;;;;;;;4985296;28;20050;-62
2024/03/22 10:42:37;;;;;;;14.50;7.93;;;;;;;;;;4995426;28;20053;-62
2024/03/22 10:45:05;;;;;;;13.30;7.28;;;;;;;;;;4991422;28;20047;-63
2024/03/22 10:47:33;;;;;;;13.77;6.88;;;;;;;;;;4988802;28;20046;-62
2024/03/22 10:50:12;;;;;;;19.27;8.25;;;;;;;;;;4990700;28;20417;-62
2024/03/22 10:52:39;;;;;;;16.77;8.75;;;;;;;;;;4991717;28;20046;-62
2024/03/22 10:55:10;;;;;;;17.33;9.15;;;;;;;;;;4995118;28;20098;-62
2024/03/22 10:57:38;;;;;;;15.68;8.38;;;;;;;;;;4994723;28;20057;-62
2024/03/22 11:00:10;;;;;;;14.95;8.65;;;;;;;;;;4991845;28;20046;-62
2024/03/22 11:02:43;;;;;;;13.80;8.00;;;;;;;;;;4996239;28;20057;-62
2024/03/22 11:05:18;;;;;;;14.30;7.78;;;;;;;;;;4990877;28;20034;-62
2024/03/22 11:07:45;;;;;;;13.38;8.40;;;;;;;;;;4994906;28;20054;-62
2024/03/22 11:10:14;;;;;;;13.02;7.85;;;;;;;;;;4996372;28;20046;-62
2024/03/22 11:12:41;;;;;;;17.88;7.93;;;;;;;;;;4994722;28;20061;-63
2024/03/22 11:15:12;;;;;;;10.00;6.20;;;;;;;;;;4994928;28;20038;-64
2024/03/22 11:17:38;;;;;;;13.18;5.35;;;;;;;;;;4992662;28;20046;-65
2024/03/22 11:20:05;;;;;;;18.00;5.60;;;;;;;;;;4997645;28;20034;-65
2024/03/22 11:22:32;;;;;;;9.35;4.60;;;;;;;;;;4989169;28;20034;-65
2024/03/22 11:24:58;;;;;;;12.02;6.40;;;;;;;;;;4992162;28;20069;-65
2024/03/22 11:27:24;;;;;;;15.10;7.72;;;;;;;;;;4991471;28;20057;-65
2024/03/22 11:29:54;;;;;;;14.48;8.30;;;;;;;;;;4991832;28;20041;-65
2024/03/22 11:32:22;;;;;;;11.15;7.45;;;;;;;;;;4989915;28;20348;-65
2024/03/22 11:34:48;;;;;;;13.35;6.20;;;;;;;;;;4990097;28;20053;-65
2024/03/22 11:37:14;;;;;;;9.57;5.60;;;;;;;;;;4985104;28;20050;-65
2024/03/22 11:39:41;;;;;;;10.95;4.95;;;;;;;;;;4993548;28;20490;-65
2024/03/22 11:42:09;;;;;;;11.82;6.88;;;;;;;;;;4990757;28;20038;-65
2024/03/22 11:44:37;;;;;;;6.28;4.30;;;;;;;;;;4993417;28;20433;-65
2024/03/22 11:47:03;;;;;;;10.98;5.50;;;;;;;;;;4990189;28;20068;-64
2024/03/22 11:49:30;;;;;;;11.07;5.72;;;;;;;;;;4996029;28;20042;-65
2024/03/22 11:51:56;;;;;;;7.18;4.40;;;;;;;;;;4992043;28;20038;-65
2024/03/22 11:54:23;;;;;;;8.02;3.70;;;;;;;;;;4993863;28;20047;-64
2024/03/22 11:56:52;;;;;;;10.38;4.05;;;;;;;;;;4992068;28;20045;-65
2024/03/22 11:59:20;;;;;;;7.63;4.15;;;;;;;;;;4996423;28;20044;-63
2024/03/22 12:01:47;;;;;;;8.52;4.68;;;;;;;;;;4992630;28;20034;-64
2024/03/22 12:04:16;;;;;;;6.80;3.47;;;;;;;;;;4992714;28;20104;-64
2024/03/22 12:06:44;;;;;;;5.88;3.67;;;;;;;;;;4992389;28;20034;-64
2024/03/22 12:09:12;;;;;;;6.30;3.30;;;;;;;;;;4995307;28;20049;-65
2024/03/22 12:11:38;;;;;;;7.35;3.30;;;;;;;;;;4993600;28;20045;-65
2024/03/22 12:14:04;;;;;;;7.07;3.80;;;;;;;;;;4988560;28;20030;-65
2024/03/22 12:16:31;;;;;;;5.38;3.30;;;;;;;;;;4993699;28;20049;-65
2024/03/22 12:18:57;;;;;;;5.13;3.30;;;;;;;;;;4995548;28;20054;-65
2024/03/22 12:21:24;;;;;;;5.65;3.70;;;;;;;;;;4993057;28;20034;-64
2024/03/22 12:23:50;;;;;;;6.97;4.38;;;;;;;;;;4976446;28;20041;-65
2024/03/22 12:26:16;;;;;;;7.38;3.80;;;;;;;;;;4989490;28;20058;-65
2024/03/22 12:28:43;;;;;;;7.50;3.55;;;;;;;;;;4986658;28;20042;-65
2024/03/22 12:31:12;;;;;;;7.07;4.40;;;;;;;;;;4984488;28;20050;-65
2024/03/22 12:33:38;;;;;;;;;;;;;;;;;;4989168;28;20421;-65
2024/03/22 12:36:04;;;;;;;9.02;4.22;;;;;;;;;;4989146;28;19968;-65
2024/03/22 12:38:30;;;;;;;8.07;3.72;;;;;;;;;;4993189;28;20510;-67
2024/03/22 12:40:57;;;;;;;5.97;3.58;;;;;;;;;;4994677;28;20049;-66
2024/03/22 12:43:23;;;;;;;7.53;3.45;;;;;;;;;;4985642;28;20041;-66
2024/03/22 12:45:50;;;;;;;9.05;3.40;;;;;;;;;;4991227;28;20030;-67
2024/03/22 12:48:16;;;;;;;5.15;3.42;;;;;;;;;;4991289;28;20037;-66
2024/03/22 12:50:42;;;;;;;10.57;3.38;;;;;;;;;;4992992;28;20048;-67
2024/03/22 12:53:08;;;;;;;9.27;3.58;;;;;;;;;;4991322;28;20042;-68
2024/03/22 12:55:34;;;;;;;8.02;4.13;;;;;;;;;;4994870;28;20033;-69
2024/03/22 12:58:00;;;;;;;10.52;3.60;;;;;;;;;;4995764;28;20417;-69
2024/03/22 13:00:26;;;;;;;15.95;4.90;;;;;;;;;;4990850;28;20080;-69
2024/03/22 13:02:53;;;;;;;8.88;4.15;;;;;;;;;;4990930;28;20054;-70
2024/03/22 13:05:19;;;;;;;11.27;4.25;;;;;;;;;;4991393;28;20034;-68
2024/03/22 13:07:45;;;;;;;9.50;3.95;;;;;;;;;;4996070;28;20041;-68
2024/03/22 13:10:11;;;;;;;11.00;3.90;;;;;;;;;;4981948;28;20045;-68
2024/03/22 13:12:38;;;;;;;9.18;3.58;;;;;;;;;;4996763;28;20053;-69
2024/03/22 13:15:04;;;;;;;7.05;3.72;;;;;;;;;;4997355;28;20049;-68
2024/03/22 13:17:31;;;;;;;8.57;3.85;;;;;;;;;;4995655;28;20058;-67
2024/03/22 13:19:57;;;;;;;10.48;3.80;;;;;;;;;;4992617;28;20057;-66
2024/03/22 13:22:23;;;;;;;5.80;3.45;;;;;;;;;;4990670;28;20347;-67
2024/03/22 13:24:50;;;;;;;8.35;3.28;;;;;;;;;;4992872;28;20053;-67
2024/03/22 13:27:16;;;;;;;5.22;3.10;;;;;;;;;;4993165;28;20065;-67
2024/03/22 13:29:43;;;;;;;6.25;3.50;;;;;;;;;;4994391;28;20437;-67
2024/03/22 13:32:09;;;;;;;4.38;2.67;;;;;;;;;;4991718;28;20494;-67
2024/03/22 13:34:35;;;;;;;4.13;2.95;;;;;;;;;;4985207;28;20046;-67
2024/03/22 13:37:01;;;;;;;6.82;3.20;;;;;;;;;;4989777;28;20034;-67
2024/03/22 13:39:30;;;;;;;6.53;3.20;;;;;;;;;;4995036;28;20054;-67
2024/03/22 13:41:57;;;;;;;4.63;2.80;;;;;;;;;;4994030;28;20545;-67
2024/03/22 13:44:24;;;;;;;7.75;3.30;;;;;;;;;;4994772;28;20026;-66
2024/03/22 13:46:50;;;;;;;6.43;2.78;;;;;;;;;;4995460;28;20057;-66
2024/03/22 13:49:17;;;;;;;5.30;3.20;;;;;;;;;;4997236;28;20076;-67
2024/03/22 13:51:44;;;;;;;6.50;2.92;;;;;;;;;;4995892;28;20042;-66
2024/03/22 13:54:12;;;;;;;6.70;3.40;;;;;;;;;;4993032;28;20430;-67
2024/03/22 13:56:38;;;;;;;4.90;3.20;;;;;;;;;;4993207;28;20510;-66
2024/03/22 13:59:05;;;;;;;7.88;2.80;;;;;;;;;;4997042;28;20049;-67
2024/03/22 14:01:37;;;;;;;8.15;3.17;;;;;;;;;;4997619;28;20068;-67
2024/03/22 14:04:05;;;;;;;3.55;2.63;;;;;;;;;;4989372;28;20049;-65
2024/03/22 14:06:32;;;;;;;10.82;3.00;;;;;;;;;;4993382;28;20058;-66
2024/03/22 14:09:01;;;;;;;6.93;3.45;;;;;;;;;;4993929;28;20042;-67
2024/03/22 14:11:28;;;;;;;4.28;2.58;;;;;;;;;;4996821;28;20046;-67
2024/03/22 14:13:54;;;;;;;4.55;2.58;;;;;;;;;;4995982;28;20068;-68
2024/03/22 14:16:20;;;;;;;6.07;2.30;;;;;;;;;;4995724;28;20034;-67
2024/03/22 14:18:48;;;;;;;6.05;2.35;;;;;;;;;;4995288;28;20065;-68
2024/03/22 14:21:18;;;;;;;4.80;2.47;;;;;;;;;;4997304;28;20409;-69